Time;durP1;ratioP1;P1;durP2;ratioP2;P2;SDS_P1;SDS_P2;PMS_P1;PMS_P2;Temp;Humidity;BMP_temperature;BMP_pressure;BME280_temperature;BME280_humidity;BME280_pressure;Samples;Min_cycle;Max_cycle;Signal;HPM_P1;HPM_P2
2021/11/30 00:00:06;;;;;;;33.10;17.10;;;;;;;0.33;85.32;97118.76;105156;1322;22649;-86
2021/11/30 00:02:56;;;;;;;31.90;15.40;;;;;;;0.33;85.37;97113.45;103784;1315;137562;-87
2021/11/30 00:05:23;;;;;;;32.60;16.40;;;;;;;0.31;85.52;97118.69;103876;1322;23446;-86
2021/11/30 00:07:53;;;;;;;31.10;15.30;;;;;;;0.31;85.30;97115.84;104248;1314;138950;-86
2021/11/30 00:13:25;;;;;;;29.70;15.20;;;;;;;0.34;85.64;97117.36;105063;1320;30238;-87
2021/11/30 00:16:06;;;;;;;26.20;13.50;;;;;;;0.35;85.72;97120.33;104018;1317;137437;-87
2021/11/30 00:18:35;;;;;;;;;;;;;;;0.34;85.95;97125.48;103755;1316;22803;-86
2021/11/30 00:21:06;;;;;;;31.00;15.10;;;;;;;0.32;85.78;97128.98;103387;1318;124456;-86
2021/11/30 00:23:34;;;;;;;28.50;16.10;;;;;;;0.31;85.85;97134.27;103843;1316;30358;-87
2021/11/30 00:26:15;;;;;;;34.00;16.80;;;;;;;0.30;86.03;97135.88;103617;1316;138223;-86
2021/11/30 00:28:45;;;;;;;30.50;15.20;;;;;;;0.32;86.17;97143.72;104307;1322;22583;-86
2021/11/30 00:31:12;;;;;;;32.10;16.40;;;;;;;0.32;86.16;97146.44;105411;1317;23374;-87
2021/11/30 00:33:39;;;;;;;35.90;17.60;;;;;;;0.30;86.46;97152.44;104436;1321;137962;-87
2021/11/30 00:36:22;;;;;;;31.60;16.60;;;;;;;0.31;86.41;97159.05;104114;1319;22642;-86
2021/11/30 00:38:49;;;;;;;31.60;15.70;;;;;;;0.31;86.65;97162.76;105061;1316;138232;-87
2021/11/30 00:41:16;;;;;;;36.40;17.50;;;;;;;0.31;86.58;97169.20;103803;1320;22796;-87
2021/11/30 00:43:50;;;;;;;33.70;17.10;;;;;;;0.30;86.73;97172.20;104236;1319;137668;-86
2021/11/30 00:46:23;;;;;;;32.90;16.60;;;;;;;0.29;86.64;97180.40;105101;1316;24440;-86
2021/11/30 00:48:53;;;;;;;31.80;16.30;;;;;;;0.27;86.73;97185.48;105140;1319;23224;-86
2021/11/30 00:51:23;;;;;;;32.40;17.70;;;;;;;0.24;87.06;97181.86;104043;1319;138322;-87
2021/11/30 00:53:51;;;;;;;33.40;17.00;;;;;;;0.22;87.06;97185.49;103915;1323;22739;-87
2021/11/30 00:56:19;;;;;;;28.60;16.10;;;;;;;0.20;87.18;97190.73;105437;1314;138490;-86
2021/11/30 00:58:49;;;;;;;27.40;14.20;;;;;;;0.19;87.44;97194.11;104679;1317;23378;-87
2021/11/30 01:01:16;;;;;;;27.20;14.50;;;;;;;0.17;87.31;97193.95;104546;1323;25122;-87
2021/11/30 01:03:43;;;;;;;32.70;16.50;;;;;;;0.15;87.82;97203.30;105152;1315;137419;-87
2021/11/30 01:06:24;;;;;;;33.30;17.10;;;;;;;0.16;87.83;97209.46;103787;1315;22591;-87
2021/11/30 01:08:57;;;;;;;30.50;16.50;;;;;;;0.16;88.02;97212.07;104589;1318;138413;-87
2021/11/30 01:11:24;;;;;;;27.60;15.80;;;;;;;0.18;87.90;97215.98;104022;1315;22743;-86
2021/11/30 01:13:51;;;;;;;23.40;13.30;;;;;;;0.19;88.09;97221.55;103473;1316;138301;-87
2021/11/30 01:16:26;;;;;;;24.90;13.50;;;;;;;0.21;88.00;97222.73;103734;1316;22715;-87
2021/11/30 01:18:53;;;;;;;27.10;16.10;;;;;;;0.22;88.29;97224.58;104262;1316;22602;-87
2021/11/30 01:21:41;;;;;;;28.50;14.70;;;;;;;0.22;88.30;97226.98;104241;1320;137638;-87
2021/11/30 01:24:09;;;;;;;29.70;15.70;;;;;;;0.20;88.08;97227.67;105197;1322;25303;-86
2021/11/30 01:26:36;;;;;;;25.80;14.50;;;;;;;0.20;88.28;97230.52;104038;1316;138184;-87
2021/11/30 01:29:06;;;;;;;24.90;13.90;;;;;;;0.21;88.26;97237.34;103719;1319;22785;-87
2021/11/30 01:31:47;;;;;;;23.90;12.70;;;;;;;0.23;88.57;97236.61;105111;1315;22566;-87
2021/11/30 01:34:14;;;;;;;24.70;14.00;;;;;;;0.23;88.54;97236.27;103639;1323;137659;-86
2021/11/30 01:36:41;;;;;;;29.00;15.20;;;;;;;0.23;88.77;97242.50;103947;1316;22639;-87
2021/11/30 01:39:08;;;;;;;29.40;15.40;;;;;;;0.25;88.53;97244.02;104473;1318;138327;-87
2021/11/30 01:41:37;;;;;;;26.20;14.10;;;;;;;0.27;88.75;97244.05;104012;1315;23421;-87
2021/11/30 01:47:54;;;;;;;22.50;12.70;;;;;;;0.32;88.76;97245.64;104972;1316;25415;-88
2021/11/30 01:49:52;;;;;;;23.90;14.30;;;;;;;0.31;88.73;97247.30;104616;1315;22679;-87
2021/11/30 01:52:19;;;;;;;27.30;14.20;;;;;;;0.31;88.67;97242.48;104584;1322;138252;-86
2021/11/30 01:54:50;;;;;;;25.60;14.20;;;;;;;0.31;89.01;97242.10;104039;1320;23385;-87
2021/11/30 01:57:21;;;;;;;20.70;12.70;;;;;;;0.32;89.03;97241.94;104467;1322;138164;-87
2021/11/30 01:59:50;;;;;;;21.10;11.70;;;;;;;0.32;88.88;97246.98;103830;1322;25248;-87
2021/11/30 02:02:19;;;;;;;19.00;11.10;;;;;;;0.30;88.93;97252.15;105219;1316;137839;-86
2021/11/30 02:04:46;;;;;;;24.30;12.70;;;;;;;0.30;88.93;97254.76;104181;1318;22636;-86
2021/11/30 02:07:15;;;;;;;20.40;12.30;;;;;;;0.30;89.03;97259.52;104125;1315;23660;-87
2021/11/30 02:09:45;;;;;;;22.20;12.30;;;;;;;0.31;88.79;97262.00;105406;1320;138113;-86
2021/11/30 02:12:12;;;;;;;19.50;11.30;;;;;;;0.34;89.04;97260.23;104893;1322;22409;-88
2021/11/30 02:14:42;;;;;;;17.20;9.20;;;;;;;0.37;89.14;97258.60;105517;1316;138275;-87
2021/11/30 02:17:13;;;;;;;18.90;10.70;;;;;;;0.39;88.74;97263.64;103696;1319;24275;-86
2021/11/30 02:19:57;;;;;;;18.60;10.80;;;;;;;0.42;88.81;97265.81;104436;1318;22704;-88
2021/11/30 02:22:25;;;;;;;16.60;10.20;;;;;;;0.41;88.48;97258.52;104523;1318;138242;-87
2021/11/30 02:24:53;;;;;;;18.40;10.70;;;;;;;0.44;88.23;97267.61;104309;1316;22685;-87
2021/11/30 02:27:23;;;;;;;17.60;10.30;;;;;;;0.45;88.33;97265.89;106030;1322;137782;-87
2021/11/30 02:29:50;;;;;;;16.10;9.80;;;;;;;0.43;88.15;97262.23;103940;1315;22630;-86
2021/11/30 02:32:20;;;;;;;16.90;9.60;;;;;;;0.47;88.32;97272.19;105541;1316;137980;-86
2021/11/30 02:34:47;;;;;;;16.10;10.50;;;;;;;0.49;88.25;97275.85;103844;1316;22865;-87
2021/11/30 02:37:24;;;;;;;17.40;10.20;;;;;;;0.51;87.87;97277.17;103884;1322;22628;-88
2021/11/30 02:39:51;;;;;;;18.30;11.20;;;;;;;0.53;87.77;97283.49;104267;1317;138684;-88
2021/11/30 02:42:18;;;;;;;15.20;8.40;;;;;;;0.54;87.78;97282.05;103816;1322;23840;-87
2021/11/30 02:44:47;;;;;;;25.10;11.70;;;;;;;0.54;87.59;97287.30;104055;1315;138130;-87
2021/11/30 02:47:15;;;;;;;20.60;10.00;;;;;;;0.54;87.68;97286.55;104692;1315;23212;-87
2021/11/30 02:49:43;;;;;;;26.70;13.10;;;;;;;0.53;87.43;97288.08;103937;1316;23017;-87
2021/11/30 02:52:14;;;;;;;24.70;12.20;;;;;;;0.53;87.36;97287.58;105326;1321;138374;-86
2021/11/30 02:54:55;;;;;;;24.00;11.00;;;;;;;0.55;87.30;97288.41;103937;1321;22614;-85
2021/11/30 02:57:23;;;;;;;19.90;11.40;;;;;;;0.57;87.27;97283.48;104814;1320;137859;-85
2021/11/30 02:59:53;;;;;;;19.80;9.90;;;;;;;0.59;87.32;97280.19;104212;1315;24264;-85
2021/11/30 03:02:23;;;;;;;19.70;10.80;;;;;;;0.60;87.30;97284.17;104804;1321;137545;-85
2021/11/30 03:04:53;;;;;;;17.90;10.60;;;;;;;0.59;86.98;97284.19;104578;1315;22626;-86
2021/11/30 03:07:27;;;;;;;17.50;10.40;;;;;;;0.58;87.03;97285.39;103719;1321;24436;-85
2021/11/30 03:09:55;;;;;;;18.80;10.00;;;;;;;0.59;86.97;97288.84;105115;1322;138157;-85
2021/11/30 03:12:23;;;;;;;18.80;10.80;;;;;;;0.59;86.61;97288.11;103964;1316;22606;-84
2021/11/30 03:14:51;;;;;;;16.10;10.10;;;;;;;0.57;86.64;97282.63;104148;1321;137682;-85
2021/11/30 03:17:24;;;;;;;18.60;10.00;;;;;;;0.56;86.87;97284.27;104725;1322;22650;-85
2021/11/30 03:19:51;;;;;;;15.10;9.50;;;;;;;0.56;86.61;97279.20;103697;1321;22639;-86
2021/11/30 03:22:18;;;;;;;11.10;7.60;;;;;;;0.57;86.41;97278.54;104235;1315;138018;-85
2021/11/30 03:24:45;;;;;;;17.30;9.30;;;;;;;0.57;86.39;97283.86;105069;1323;22551;-86
2021/11/30 03:27:12;;;;;;;14.20;9.10;;;;;;;0.57;86.25;97277.10;105238;1322;137525;-85
2021/11/30 03:29:39;;;;;;;13.60;7.50;;;;;;;0.57;86.39;97276.24;103577;1316;23406;-85
2021/11/30 03:32:09;;;;;;;13.20;8.60;;;;;;;0.55;86.22;97278.23;103976;1316;137849;-84
2021/11/30 03:34:37;;;;;;;15.30;8.90;;;;;;;0.54;86.26;97283.95;104912;1317;23084;-86
2021/11/30 03:37:07;;;;;;;13.70;8.70;;;;;;;0.53;85.97;97284.95;104441;1317;23070;-85
2021/11/30 03:39:35;;;;;;;11.00;7.70;;;;;;;0.53;85.84;97283.50;104484;1321;137788;-85
2021/11/30 03:42:16;;;;;;;16.00;8.90;;;;;;;0.53;85.87;97278.14;104783;1318;22407;-86
2021/11/30 03:44:43;;;;;;;12.00;8.00;;;;;;;0.53;85.87;97281.33;104914;1317;137771;-85
2021/11/30 03:47:13;;;;;;;15.90;8.90;;;;;;;0.53;85.75;97283.34;104489;1315;22586;-86
2021/11/30 03:49:43;;;;;;;12.10;7.70;;;;;;;0.52;85.82;97286.64;105009;1322;25357;-86
2021/11/30 03:52:10;;;;;;;13.60;7.80;;;;;;;0.53;85.57;97284.20;103763;1315;138278;-85
2021/11/30 03:54:37;;;;;;;11.70;7.10;;;;;;;0.54;85.65;97285.70;104950;1318;22605;-84
2021/11/30 03:57:04;;;;;;;10.10;7.10;;;;;;;0.55;85.59;97293.07;103559;1321;137349;-85
2021/11/30 03:59:32;;;;;;;12.30;7.50;;;;;;;0.53;85.38;97291.02;103790;1323;23327;-86
2021/11/30 04:02:01;;;;;;;14.50;8.50;;;;;;;0.51;85.61;97290.67;103751;1320;22676;-86
2021/11/30 04:04:45;;;;;;;14.00;8.80;;;;;;;0.53;85.89;97291.24;104159;1317;138215;-86
2021/11/30 04:07:12;;;;;;;12.80;7.80;;;;;;;0.55;85.76;97287.05;104825;1320;23030;-85
2021/11/30 04:09:39;;;;;;;16.40;8.20;;;;;;;0.57;85.97;97291.35;104755;1319;137857;-85
2021/11/30 04:12:08;;;;;;;12.20;8.40;;;;;;;0.59;85.96;97292.73;104580;1322;22371;-86
2021/11/30 04:14:35;;;;;;;15.00;9.70;;;;;;;0.60;85.92;97296.39;104264;1316;138637;-86
2021/11/30 04:17:03;;;;;;;16.70;10.90;;;;;;;0.59;86.21;97299.89;104329;1315;22587;-85
2021/11/30 04:19:30;;;;;;;16.10;9.60;;;;;;;0.59;86.11;97302.69;103882;1316;23250;-86
2021/11/30 04:21:58;;;;;;;13.60;9.00;;;;;;;0.60;86.13;97307.77;103382;1316;139007;-85
2021/11/30 04:24:40;;;;;;;12.00;7.80;;;;;;;0.61;85.95;97305.16;104276;1323;22650;-85
2021/11/30 04:27:08;;;;;;;15.10;8.70;;;;;;;0.60;86.02;97304.96;104801;1321;137333;-85
2021/11/30 04:29:39;;;;;;;13.80;8.40;;;;;;;0.60;86.00;97304.55;105362;1322;24255;-85
2021/11/30 04:32:07;;;;;;;13.80;8.70;;;;;;;0.61;86.10;97308.25;103944;1316;22751;-86
2021/11/30 04:34:34;;;;;;;14.20;7.70;;;;;;;0.61;86.00;97300.25;103894;1322;138564;-86
2021/11/30 04:37:03;;;;;;;12.70;7.80;;;;;;;0.61;85.84;97300.77;104848;1317;22611;-86
2021/11/30 04:39:44;;;;;;;12.40;7.30;;;;;;;0.59;85.49;97301.84;103728;1321;137653;-85
2021/11/30 04:42:11;;;;;;;14.30;8.60;;;;;;;0.57;85.54;97303.10;103750;1318;24312;-84
2021/11/30 04:45:13;;;;;;;12.00;6.90;;;;;;;0.54;85.40;97308.39;103775;1322;138051;-86
2021/11/30 04:47:43;;;;;;;11.30;7.40;;;;;;;0.50;85.39;97308.94;103887;1315;207223;-86
2021/11/30 04:50:32;;;;;;;13.60;7.10;;;;;;;0.48;85.56;97306.63;103627;1322;138553;-86
2021/11/30 04:53:00;;;;;;;12.10;7.20;;;;;;;0.48;85.30;97303.63;104026;1319;22596;-87
2021/11/30 04:55:41;;;;;;;11.50;7.50;;;;;;;0.47;85.32;97303.38;103780;1320;22584;-86
2021/11/30 04:58:08;;;;;;;11.20;7.10;;;;;;;0.46;85.33;97304.91;104574;1321;138173;-87
2021/11/30 05:00:38;;;;;;;12.10;8.00;;;;;;;0.43;85.55;97309.16;104462;1319;22655;-87
2021/11/30 05:03:21;;;;;;;11.10;6.50;;;;;;;0.42;85.32;97306.98;103934;1316;137822;-86
2021/11/30 05:05:48;;;;;;;15.90;7.90;;;;;;;0.41;85.45;97303.02;103650;1323;22726;-86
2021/11/30 05:08:16;;;;;;;12.00;7.50;;;;;;;0.42;85.35;97305.24;105005;1316;23265;-86
2021/11/30 05:10:43;;;;;;;11.20;7.60;;;;;;;0.41;85.46;97303.72;103514;1321;137429;-86
2021/11/30 05:13:10;;;;;;;9.70;6.60;;;;;;;0.40;85.67;97301.17;104028;1322;23298;-84
2021/11/30 05:15:37;;;;;;;11.40;7.10;;;;;;;0.38;85.53;97299.64;104206;1322;137548;-85
2021/11/30 05:18:04;;;;;;;11.60;6.80;;;;;;;0.36;85.36;97300.84;103899;1320;22736;-85
2021/11/30 05:20:32;;;;;;;11.60;6.90;;;;;;;0.34;85.08;97306.41;103905;1316;138918;-87
2021/11/30 05:22:59;;;;;;;10.20;7.00;;;;;;;0.34;84.95;97307.39;105237;1322;23230;-87
2021/11/30 05:25:40;;;;;;;8.40;6.30;;;;;;;0.31;85.15;97308.14;105053;1317;23970;-87
2021/11/30 05:28:07;;;;;;;10.80;6.40;;;;;;;0.29;85.22;97305.88;103638;1322;137580;-86
2021/11/30 05:30:48;;;;;;;13.00;7.80;;;;;;;0.27;84.95;97308.94;103696;1315;24284;-86
2021/11/30 05:33:15;;;;;;;11.70;7.20;;;;;;;0.23;84.96;97311.48;104091;1315;138647;-86
2021/11/30 05:35:45;;;;;;;12.80;6.50;;;;;;;0.23;84.55;97311.91;103779;1321;25530;-86
2021/11/30 05:38:34;;;;;;;12.20;7.30;;;;;;;0.22;84.74;97314.75;103610;1323;138014;-86
2021/11/30 05:41:01;;;;;;;10.80;6.80;;;;;;;0.21;84.88;97319.56;103760;1316;22634;-85
2021/11/30 05:43:31;;;;;;;11.10;7.20;;;;;;;0.16;84.54;97315.23;104184;1315;24498;-87
2021/11/30 05:46:00;;;;;;;13.60;7.30;;;;;;;0.12;84.57;97313.67;104063;1318;137289;-87
2021/11/30 05:48:27;;;;;;;11.50;7.60;;;;;;;0.10;84.66;97314.54;103828;1316;23962;-85
2021/11/30 05:50:54;;;;;;;12.10;8.30;;;;;;;0.08;84.54;97317.63;104177;1320;138307;-87
2021/11/30 05:53:35;;;;;;;13.80;8.20;;;;;;;0.09;84.45;97320.30;104029;1316;22565;-85
2021/11/30 05:56:07;;;;;;;12.80;8.40;;;;;;;0.08;84.52;97315.81;104953;1315;22724;-85
2021/11/30 05:58:38;;;;;;;12.30;7.50;;;;;;;0.09;84.51;97326.02;104523;1321;137436;-85
2021/11/30 06:04:18;;;;;;;14.00;8.60;;;;;;;0.10;84.75;97329.19;104756;1314;137604;-85
2021/11/30 06:06:45;;;;;;;12.20;8.40;;;;;;;0.12;84.85;97328.02;104611;1316;24796;-85
2021/11/30 06:09:12;;;;;;;13.30;8.70;;;;;;;0.16;84.94;97326.06;103966;1321;137817;-85
2021/11/30 06:11:39;;;;;;;15.70;9.40;;;;;;;0.19;84.75;97318.84;105064;1316;22611;-85
2021/11/30 06:14:08;;;;;;;13.70;8.50;;;;;;;0.22;84.90;97318.77;105559;1319;22649;-85
2021/11/30 06:16:35;;;;;;;13.10;8.60;;;;;;;0.24;84.85;97314.99;103766;1321;137471;-86
2021/11/30 06:19:03;;;;;;;12.60;8.30;;;;;;;0.25;84.67;97307.12;103654;1323;22733;-85
2021/11/30 06:21:31;;;;;;;16.40;9.70;;;;;;;0.26;84.33;97311.98;104348;1315;138131;-88
2021/11/30 06:24:12;;;;;;;16.80;10.00;;;;;;;0.27;84.65;97311.60;103728;1317;24291;-86
2021/11/30 06:26:40;;;;;;;17.10;10.90;;;;;;;0.29;84.50;97311.02;103807;1321;138657;-85
2021/11/30 06:29:21;;;;;;;17.00;10.70;;;;;;;0.31;84.63;97310.98;103605;1322;22656;-85
2021/11/30 06:31:50;;;;;;;17.50;10.10;;;;;;;0.32;84.59;97313.86;104849;1315;23671;-87
2021/11/30 06:34:31;;;;;;;17.80;10.00;;;;;;;0.30;84.39;97311.69;103910;1317;137453;-85
2021/11/30 06:36:58;;;;;;;15.50;9.90;;;;;;;0.30;84.77;97313.54;104341;1316;22691;-85
2021/11/30 06:39:25;;;;;;;15.40;9.60;;;;;;;0.33;84.66;97311.47;103647;1315;138264;-87
2021/11/30 06:42:07;;;;;;;15.00;9.10;;;;;;;0.35;84.51;97310.98;104040;1321;22810;-85
2021/11/30 06:44:35;;;;;;;14.80;10.10;;;;;;;0.37;84.31;97317.08;105520;1321;137535;-86
2021/11/30 06:47:03;;;;;;;19.20;10.40;;;;;;;0.40;84.69;97315.02;105044;1318;22305;-85
2021/11/30 06:49:30;;;;;;;17.30;9.40;;;;;;;0.38;84.38;97314.35;103595;1322;22712;-85
2021/11/30 06:51:58;;;;;;;16.00;9.60;;;;;;;0.41;84.24;97328.48;103886;1322;138037;-86
2021/11/30 06:54:25;;;;;;;14.20;8.70;;;;;;;0.41;84.17;97325.84;105114;1321;24296;-85
2021/11/30 06:56:52;;;;;;;34.80;15.00;;;;;;;0.42;84.27;97313.57;103991;1322;137595;-85
2021/11/30 06:59:19;;;;;;;18.00;9.40;;;;;;;0.44;84.13;97317.30;104547;1317;23089;-86
2021/11/30 07:01:47;;;;;;;14.20;8.90;;;;;;;0.42;83.93;97312.73;105186;1317;22592;-89
2021/11/30 07:04:14;;;;;;;16.70;9.10;;;;;;;0.41;83.97;97308.17;105887;1315;137980;-86
2021/11/30 07:06:48;;;;;;;16.10;9.70;;;;;;;0.41;83.91;97315.36;104306;1317;22639;-86
2021/11/30 07:14:13;;;;;;;15.30;9.10;;;;;;;0.44;84.09;97326.49;104267;1316;22570;-85
2021/11/30 07:16:40;;;;;;;17.30;10.60;;;;;;;0.45;84.28;97320.35;103887;1316;137292;-86
2021/11/30 07:19:07;;;;;;;17.10;10.80;;;;;;;0.47;84.10;97319.05;104515;1323;22653;-86
2021/11/30 07:21:34;;;;;;;17.50;10.30;;;;;;;0.47;83.91;97320.77;104241;1323;138656;-86
2021/11/30 07:24:02;;;;;;;18.80;10.80;;;;;;;0.48;84.05;97321.13;104415;1316;22588;-86
2021/11/30 07:26:29;;;;;;;15.90;9.70;;;;;;;0.50;84.08;97318.52;105205;1322;137696;-86
2021/11/30 07:29:10;;;;;;;14.40;9.50;;;;;;;0.51;84.00;97317.92;105626;1316;23403;-85
2021/11/30 07:31:38;;;;;;;16.60;9.90;;;;;;;0.51;84.04;97317.80;104063;1316;25231;-88
2021/11/30 07:34:19;;;;;;;14.70;9.40;;;;;;;0.52;84.12;97317.59;104638;1322;138691;-88
2021/11/30 07:36:46;;;;;;;16.50;9.40;;;;;;;0.52;83.83;97314.87;104210;1316;22669;-86
2021/11/30 07:39:13;;;;;;;16.10;8.50;;;;;;;0.54;83.66;97315.80;103902;1317;138056;-87
2021/11/30 07:41:40;;;;;;;12.20;7.70;;;;;;;0.57;83.75;97315.14;104212;1313;22304;-86
2021/11/30 07:44:21;;;;;;;12.20;7.90;;;;;;;0.61;83.91;97314.68;104895;1318;22634;-88
2021/11/30 07:46:48;;;;;;;12.60;7.70;;;;;;;0.62;84.01;97310.56;105160;1320;137371;-87
2021/11/30 07:49:15;;;;;;;14.50;8.90;;;;;;;0.61;84.02;97310.48;104551;1322;22540;-88
2021/11/30 07:51:43;;;;;;;15.80;8.90;;;;;;;0.60;83.91;97310.32;103811;1322;138087;-88
2021/11/30 07:54:10;;;;;;;14.90;8.30;;;;;;;0.57;83.93;97308.55;105202;1316;22639;-89
2021/11/30 07:56:51;;;;;;;13.40;8.10;;;;;;;0.55;84.09;97306.65;104354;1321;138032;-87
2021/11/30 07:59:19;;;;;;;15.50;9.90;;;;;;;0.54;84.35;97300.93;104676;1316;22754;-84
2021/11/30 08:02:00;;;;;;;13.90;9.60;;;;;;;0.55;84.59;97298.04;104719;1321;23048;-87
2021/11/30 08:04:27;;;;;;;19.60;10.90;;;;;;;0.56;84.70;97298.48;103902;1323;137897;-87
2021/11/30 08:06:56;;;;;;;21.00;10.80;;;;;;;0.56;84.95;97295.27;104976;1318;25268;-88
2021/11/30 08:09:28;;;;;;;17.20;10.80;;;;;;;0.59;85.09;97294.20;104096;1321;138565;-85
2021/11/30 08:11:55;;;;;;;15.40;9.40;;;;;;;0.62;85.26;97289.98;104663;1323;23466;-90
2021/11/30 08:14:24;;;;;;;14.00;9.30;;;;;;;0.64;85.02;97291.89;104212;1322;22639;-91
2021/11/30 08:16:53;;;;;;;;;;;;;;;0.65;85.23;97292.59;104131;1321;137530;-86
2021/11/30 08:19:23;;;;;;;16.60;9.90;;;;;;;0.66;85.22;97285.58;104275;1322;25534;-83
2021/11/30 08:21:51;;;;;;;24.10;11.20;;;;;;;0.68;85.60;97283.26;104201;1321;137669;-92
2021/11/30 08:24:18;;;;;;;18.10;11.00;;;;;;;0.72;85.78;97279.33;104223;1322;22624;-86
2021/11/30 08:26:45;;;;;;;20.70;10.90;;;;;;;0.78;85.69;97274.73;103560;1315;138377;-86
2021/11/30 08:29:12;;;;;;;17.00;11.40;;;;;;;0.82;85.78;97275.58;103793;1316;22572;-87
2021/11/30 08:31:39;;;;;;;15.50;10.40;;;;;;;0.84;85.55;97271.45;104439;1321;24266;-89
2021/11/30 08:34:06;;;;;;;15.80;10.20;;;;;;;0.84;85.66;97267.29;104136;1322;137773;-88
2021/11/30 08:36:34;;;;;;;17.00;10.10;;;;;;;0.82;85.44;97263.02;105287;1320;22296;-87
2021/11/30 08:39:01;;;;;;;18.30;10.10;;;;;;;0.80;85.51;97260.42;104227;1321;140337;-87
2021/11/30 08:41:28;;;;;;;16.30;9.70;;;;;;;0.81;85.69;97264.95;104599;1320;24231;-86
2021/11/30 08:43:55;;;;;;;17.30;9.20;;;;;;;0.80;85.69;97260.42;103815;1321;23670;-87
2021/11/30 08:46:22;;;;;;;15.10;8.80;;;;;;;0.82;85.61;97263.30;104280;1321;137790;-87
2021/11/30 08:48:49;;;;;;;16.40;9.80;;;;;;;0.81;85.79;97263.21;104060;1320;23417;-87
2021/11/30 08:51:16;;;;;;;15.70;10.00;;;;;;;0.82;86.00;97254.59;103788;1321;137761;-87
2021/11/30 08:53:43;;;;;;;17.30;11.50;;;;;;;0.83;85.87;97251.48;103866;1317;25929;-88
2021/11/30 08:56:13;;;;;;;20.40;12.60;;;;;;;0.86;86.19;97246.62;103645;1322;23156;-86
2021/11/30 08:58:40;;;;;;;18.00;10.70;;;;;;;0.89;86.18;97247.47;103893;1316;137854;-88
2021/11/30 09:01:08;;;;;;;18.30;11.20;;;;;;;0.94;86.16;97240.25;104103;1317;22589;-88
2021/11/30 09:03:35;;;;;;;19.70;12.40;;;;;;;0.98;86.37;97240.71;103727;1317;138092;-88
2021/11/30 09:06:02;;;;;;;23.70;13.30;;;;;;;1.01;86.53;97236.23;104376;1316;22847;-87
2021/11/30 09:08:30;;;;;;;23.30;13.60;;;;;;;1.03;86.54;97232.94;103849;1323;25287;-85
2021/11/30 09:10:59;;;;;;;23.20;12.80;;;;;;;1.06;86.47;97230.98;103771;1323;138121;-86
2021/11/30 09:13:26;;;;;;;21.20;12.30;;;;;;;1.10;86.24;97227.46;103555;1316;24221;-87
2021/11/30 09:15:53;;;;;;;21.60;12.50;;;;;;;1.11;86.02;97221.70;103549;1321;137594;-85
2021/11/30 09:18:20;;;;;;;17.30;10.40;;;;;;;1.13;85.79;97214.33;104019;1316;23417;-86
2021/11/30 09:20:47;;;;;;;17.60;10.90;;;;;;;1.15;85.77;97213.89;103786;1316;138337;-83
2021/11/30 09:23:14;;;;;;;15.70;10.30;;;;;;;1.18;85.50;97201.99;103805;1316;22706;-86
2021/11/30 09:25:42;;;;;;;15.10;9.30;;;;;;;1.26;85.05;97195.38;103787;1316;22598;-85
2021/11/30 09:28:09;;;;;;;14.10;9.50;;;;;;;1.31;84.55;97188.21;103154;1323;137755;-85
2021/11/30 09:30:37;;;;;;;13.90;9.50;;;;;;;1.36;84.93;97186.33;104091;1317;24257;-85
2021/11/30 09:33:04;;;;;;;18.10;10.20;;;;;;;1.39;84.73;97181.06;104009;1316;138395;-85
2021/11/30 09:35:32;;;;;;;18.50;11.10;;;;;;;1.40;84.58;97179.85;103727;1322;25468;-84
2021/11/30 09:37:59;;;;;;;16.40;10.70;;;;;;;1.43;84.46;97174.51;104521;1316;22777;-82
2021/11/30 09:40:29;;;;;;;16.00;10.20;;;;;;;1.53;84.77;97170.38;104196;1316;138170;-84
2021/11/30 09:42:56;;;;;;;16.40;10.50;;;;;;;1.67;84.35;97160.35;104088;1316;22928;-84
2021/11/30 09:45:26;;;;;;;14.20;8.80;;;;;;;1.76;83.90;97160.08;103712;1321;138133;-83
2021/11/30 09:47:54;;;;;;;11.90;8.60;;;;;;;1.76;83.19;97156.55;103716;1316;22644;-83
2021/11/30 09:50:23;;;;;;;12.10;7.90;;;;;;;1.77;82.79;97149.70;103637;1321;23125;-85
2021/11/30 09:52:54;;;;;;;15.30;9.40;;;;;;;1.76;82.38;97142.80;103661;1319;137925;-83
2021/11/30 09:55:23;;;;;;;13.30;8.50;;;;;;;1.75;81.61;97130.80;103929;1316;22891;-83
2021/11/30 09:57:51;;;;;;;14.80;8.20;;;;;;;1.77;81.73;97128.23;104060;1315;138652;-82
2021/11/30 10:00:34;;;;;;;11.60;7.80;;;;;;;1.82;81.37;97119.05;104169;1322;22617;-82
2021/11/30 10:03:15;;;;;;;12.00;8.70;;;;;;;1.82;81.16;97101.40;103901;1315;137718;-82
2021/11/30 10:05:43;;;;;;;11.30;7.00;;;;;;;1.84;80.70;97104.04;104050;1322;22571;-81
2021/11/30 10:08:44;;;;;;;11.50;7.60;;;;;;;1.83;80.36;97101.36;103596;1321;22634;-82
2021/11/30 10:11:38;;;;;;;11.20;7.10;;;;;;;1.83;79.81;97087.73;104159;1323;138201;-82
2021/11/30 10:14:11;;;;;;;11.50;7.70;;;;;;;1.87;80.02;97076.70;104207;1317;22592;-83
2021/11/30 10:16:39;;;;;;;10.20;6.60;;;;;;;1.92;79.56;97064.73;103706;1321;137417;-82
2021/11/30 10:19:07;;;;;;;12.70;7.10;;;;;;;1.92;78.78;97060.93;103848;1320;22671;-82
2021/11/30 10:21:35;;;;;;;10.20;7.20;;;;;;;1.93;79.02;97055.66;103310;1321;138182;-82
2021/11/30 10:24:19;;;;;;;8.90;6.00;;;;;;;2.01;78.48;97043.85;103806;1316;22923;-81
2021/11/30 10:26:46;;;;;;;9.00;6.70;;;;;;;2.09;78.12;97035.65;103859;1320;25562;-82
2021/11/30 10:29:18;;;;;;;9.70;6.40;;;;;;;2.15;77.80;97026.58;103966;1323;137165;-84
2021/11/30 10:31:49;;;;;;;8.80;5.90;;;;;;;2.18;77.67;97024.83;104356;1315;22603;-80
2021/11/30 10:34:21;;;;;;;8.10;5.00;;;;;;;2.19;76.81;97028.09;104117;1316;137294;-81
2021/11/30 10:36:56;;;;;;;8.00;5.50;;;;;;;2.18;76.20;97025.56;104170;1321;24281;-82
2021/11/30 10:39:40;;;;;;;9.30;5.40;;;;;;;2.17;76.25;97016.73;104384;1316;137874;-83
2021/11/30 10:42:21;;;;;;;7.90;4.60;;;;;;;2.17;76.12;97011.89;104337;1317;22561;-82
2021/11/30 10:44:53;;;;;;;9.40;5.50;;;;;;;2.17;75.40;96997.99;104053;1316;25249;-82
2021/11/30 10:47:23;;;;;;;8.70;5.30;;;;;;;2.16;74.79;96996.30;103658;1316;137143;-81
2021/11/30 10:50:11;;;;;;;6.30;4.30;;;;;;;2.17;75.10;96994.27;103802;1323;25375;-82
2021/11/30 10:52:55;;;;;;;10.40;5.10;;;;;;;2.16;74.89;96987.17;103907;1322;137516;-82
2021/11/30 10:55:36;;;;;;;8.00;5.70;;;;;;;2.20;74.50;96977.88;104084;1316;22599;-82
2021/11/30 10:58:03;;;;;;;8.10;5.30;;;;;;;2.25;74.70;96976.02;103658;1316;137845;-81
2021/11/30 11:00:33;;;;;;;6.90;4.20;;;;;;;2.30;74.58;96965.36;103860;1321;22615;-82
2021/11/30 11:08:42;;;;;;;6.80;5.10;;;;;;;2.56;73.03;96940.38;103800;1316;22585;-82
2021/11/30 11:11:10;;;;;;;7.30;4.80;;;;;;;2.66;72.89;96936.09;103566;1318;137448;-82
2021/11/30 11:13:39;;;;;;;5.60;4.40;;;;;;;2.74;72.95;96926.61;103586;1315;24443;-82
2021/11/30 11:16:17;;;;;;;6.60;4.80;;;;;;;2.83;73.03;96916.83;104316;1316;137659;-83
2021/11/30 11:18:44;;;;;;;9.00;4.50;;;;;;;2.94;72.82;96912.09;104131;1322;22561;-83
2021/11/30 11:21:18;;;;;;;4.70;4.20;;;;;;;3.02;72.65;96901.79;104108;1315;137931;-83
2021/11/30 11:24:07;;;;;;;6.60;4.50;;;;;;;3.10;71.92;96896.29;103859;1316;23167;-82
2021/11/30 11:26:54;;;;;;;6.40;3.90;;;;;;;3.14;70.93;96890.04;103978;1316;30415;-82
2021/11/30 11:29:30;;;;;;;7.60;4.20;;;;;;;3.15;70.04;96882.58;104458;1316;137381;-82
2021/11/30 11:32:09;;;;;;;5.60;3.60;;;;;;;3.16;69.51;96881.69;104450;1315;25386;-82
2021/11/30 11:34:39;;;;;;;6.60;3.60;;;;;;;3.15;68.34;96870.52;103999;1321;137124;-82
2021/11/30 11:37:12;;;;;;;7.10;3.70;;;;;;;3.10;66.71;96864.55;104454;1321;30737;-82
2021/11/30 11:39:39;;;;;;;10.30;4.60;;;;;;;3.01;65.87;96857.66;104098;1315;137291;-81
2021/11/30 11:42:22;;;;;;;6.00;3.40;;;;;;;2.95;66.38;96844.23;104458;1323;23420;-82
2021/11/30 11:44:52;;;;;;;15.70;7.30;;;;;;;2.89;66.24;96834.00;103665;1320;23837;-81
2021/11/30 11:47:24;;;;;;;12.30;5.90;;;;;;;2.83;66.22;96827.58;103945;1316;137717;-81
2021/11/30 11:49:56;;;;;;;10.60;5.80;;;;;;;2.79;66.32;96820.40;103838;1315;24308;-82
2021/11/30 11:52:27;;;;;;;15.90;6.30;;;;;;;2.77;65.97;96810.10;103739;1318;137352;-82
2021/11/30 11:55:15;;;;;;;10.90;6.60;;;;;;;2.78;66.06;96800.21;103801;1317;22673;-83